createdAt,value
2023-05-11T00:00:12.004Z,7.80
2023-05-11T00:02:39.560Z,10.90
2023-05-11T00:05:07.444Z,8.20
2023-05-11T00:07:43.659Z,11.80
2023-05-11T00:10:10.737Z,8.40
2023-05-11T00:12:37.766Z,9.80
2023-05-11T00:15:05.919Z,9.90
2023-05-11T00:17:33.522Z,11.40
2023-05-11T00:20:00.539Z,13.90
2023-05-11T00:22:27.604Z,12.10
2023-05-11T00:24:55.041Z,11.70
2023-05-11T00:27:22.020Z,10.90
2023-05-11T00:29:49.539Z,17.80
2023-05-11T00:32:17.061Z,14.70
2023-05-11T00:34:43.996Z,14.00
2023-05-11T00:37:10.916Z,14.90
2023-05-11T00:39:39.790Z,15.40
2023-05-11T00:42:06.758Z,15.90
2023-05-11T00:44:34.010Z,16.30
2023-05-11T00:47:01.264Z,19.90
2023-05-11T00:49:31.654Z,15.40
2023-05-11T00:52:03.460Z,16.60
2023-05-11T00:54:31.434Z,18.70
2023-05-11T00:56:58.334Z,13.80
2023-05-11T00:59:25.325Z,16.10
2023-05-11T01:01:52.197Z,20.10
2023-05-11T01:04:19.115Z,16.40
2023-05-11T01:07:15.407Z,15.70
2023-05-11T01:10:03.784Z,16.80
2023-05-11T01:12:46.173Z,19.20
2023-05-11T01:15:28.797Z,16.80
2023-05-11T01:18:06.513Z,17.10
2023-05-11T01:20:34.485Z,15.80
2023-05-11T01:23:08.063Z,19.20
2023-05-11T01:25:39.801Z,21.70
2023-05-11T01:28:15.293Z,18.30
2023-05-11T01:30:48.843Z,19.30
2023-05-11T01:33:31.144Z,19.80
2023-05-11T01:36:02.475Z,22.20
2023-05-11T01:38:35.532Z,23.50
2023-05-11T01:41:06.063Z,26.50
2023-05-11T01:43:33.573Z,24.70
2023-05-11T01:46:01.147Z,27.20
2023-05-11T01:48:31.490Z,26.10
2023-05-11T01:51:02.447Z,21.80
2023-05-11T01:53:31.878Z,19.20
2023-05-11T01:55:59.385Z,15.90
2023-05-11T01:58:26.399Z,17.40
2023-05-11T02:00:54.983Z,21.90
2023-05-11T02:03:22.841Z,17.60
2023-05-11T02:05:50.183Z,15.00
2023-05-11T02:08:17.295Z,18.20
2023-05-11T02:10:44.311Z,13.90
2023-05-11T02:13:11.218Z,14.30
2023-05-11T02:15:41.814Z,13.40
2023-05-11T02:18:13.118Z,14.10
2023-05-11T02:20:44.206Z,13.30
2023-05-11T02:23:12.617Z,15.40
2023-05-11T02:25:45.843Z,11.80
2023-05-11T02:28:12.735Z,13.80
2023-05-11T02:30:52.521Z,11.90
2023-05-11T02:33:21.955Z,10.70
2023-05-11T02:35:48.848Z,10.10
2023-05-11T02:38:15.645Z,11.50
2023-05-11T02:40:46.253Z,9.70
2023-05-11T02:43:15.832Z,15.10
2023-05-11T02:45:52.947Z,11.90
2023-05-11T02:48:25.509Z,10.70
2023-05-11T02:50:54.857Z,9.30
2023-05-11T02:53:23.717Z,11.10
2023-05-11T02:55:50.990Z,11.60
2023-05-11T02:58:23.583Z,11.70
2023-05-11T03:00:56.555Z,17.80
2023-05-11T03:03:29.277Z,13.10
2023-05-11T03:05:56.200Z,12.10
2023-05-11T03:08:24.168Z,12.40
2023-05-11T03:10:51.302Z,14.50
2023-05-11T03:13:19.573Z,13.50
2023-05-11T03:15:53.875Z,10.20
2023-05-11T03:18:21.475Z,9.00
2023-05-11T03:20:48.399Z,8.80
2023-05-11T03:23:17.084Z,9.20
2023-05-11T03:25:49.100Z,12.00
2023-05-11T03:28:16.564Z,11.00
2023-05-11T03:30:50.396Z,9.60
2023-05-11T03:33:22.692Z,11.00
2023-05-11T03:35:50.776Z,12.90
2023-05-11T03:38:22.034Z,9.20
2023-05-11T03:40:49.521Z,12.70
2023-05-11T03:43:17.598Z,11.70
2023-05-11T03:45:45.770Z,15.00
2023-05-11T03:48:20.013Z,14.90
2023-05-11T03:50:47.050Z,14.40
2023-05-11T03:53:20.891Z,15.70
2023-05-11T03:55:49.470Z,12.20
2023-05-11T03:58:16.485Z,14.50
2023-05-11T04:00:43.361Z,13.70
2023-05-11T04:03:12.048Z,17.00
2023-05-11T04:05:39.016Z,15.80
2023-05-11T04:08:09.274Z,14.10
2023-05-11T04:10:38.482Z,14.50
2023-05-11T04:13:05.553Z,14.20
2023-05-11T04:15:37.545Z,10.30
2023-05-11T04:18:05.864Z,12.50
2023-05-11T04:20:33.252Z,15.70
2023-05-11T04:23:05.588Z,15.70
2023-05-11T04:25:33.053Z,16.00
2023-05-11T04:28:00.013Z,15.70
2023-05-11T04:30:26.950Z,13.30
2023-05-11T04:32:54.064Z,15.00
2023-05-11T04:35:22.925Z,11.40
2023-05-11T04:37:50.496Z,11.80
2023-05-11T04:40:17.873Z,10.00
2023-05-11T04:42:45.436Z,12.70
2023-05-11T04:45:16.167Z,10.30
2023-05-11T04:47:44.148Z,10.40
2023-05-11T04:50:11.436Z,12.00
2023-05-11T04:52:39.088Z,10.20
2023-05-11T04:55:07.422Z,13.30
2023-05-11T04:57:34.942Z,15.00
2023-05-11T05:00:03.412Z,10.70
2023-05-11T05:02:31.423Z,10.70
2023-05-11T05:04:58.293Z,8.20
2023-05-11T05:07:25.202Z,8.80
2023-05-11T05:09:52.088Z,7.90
2023-05-11T05:12:20.059Z,13.70
2023-05-11T05:14:48.064Z,8.30
2023-05-11T05:17:17.027Z,8.50
2023-05-11T05:19:44.025Z,9.40
2023-05-11T05:22:10.922Z,9.70
2023-05-11T05:24:37.943Z,8.70
2023-05-11T05:27:05.006Z,10.30
2023-05-11T05:29:31.980Z,12.70
2023-05-11T05:31:59.905Z,12.60
2023-05-11T05:34:27.347Z,7.80
2023-05-11T05:36:55.076Z,8.30
2023-05-11T05:39:21.955Z,10.00
2023-05-11T05:41:48.955Z,9.20
2023-05-11T05:44:16.050Z,10.70
2023-05-11T05:46:43.150Z,13.20
2023-05-11T05:49:10.364Z,9.50
2023-05-11T05:51:38.084Z,8.90
2023-05-11T05:54:05.302Z,10.60
2023-05-11T05:56:34.396Z,10.50
2023-05-11T05:59:01.432Z,12.90
2023-05-11T06:01:29.003Z,13.50
2023-05-11T06:03:56.474Z,12.50
2023-05-11T06:06:24.744Z,9.10
2023-05-11T06:08:51.521Z,9.80
2023-05-11T06:11:18.266Z,8.30
2023-05-11T06:13:45.458Z,8.30
2023-05-11T06:16:12.759Z,13.50
2023-05-11T06:18:40.246Z,8.80
2023-05-11T06:21:08.221Z,8.30
2023-05-11T06:23:37.005Z,8.10
2023-05-11T06:26:03.986Z,10.40
2023-05-11T06:28:31.899Z,7.60
2023-05-11T06:31:03.635Z,14.60
2023-05-11T06:33:32.368Z,12.80
2023-05-11T06:36:05.035Z,9.00
2023-05-11T06:38:32.919Z,8.20
2023-05-11T06:41:00.158Z,9.60
2023-05-11T06:43:27.046Z,6.70
2023-05-11T06:45:54.998Z,9.60
2023-05-11T06:48:25.442Z,16.00
2023-05-11T06:50:52.270Z,8.80
2023-05-11T06:53:19.164Z,6.90
2023-05-11T06:55:46.162Z,7.90
2023-05-11T06:58:13.620Z,13.00
2023-05-11T07:00:40.742Z,9.70
2023-05-11T07:03:07.787Z,7.90
2023-05-11T07:05:35.373Z,9.40
2023-05-11T07:08:03.316Z,8.40
2023-05-11T07:10:33.207Z,8.30
2023-05-11T07:13:00.673Z,6.90
2023-05-11T07:15:27.861Z,5.00
2023-05-11T07:17:54.758Z,6.60
2023-05-11T07:20:21.850Z,5.60
2023-05-11T07:22:49.310Z,4.30
2023-05-11T07:25:16.119Z,5.40
2023-05-11T07:27:42.982Z,5.90
2023-05-11T07:30:10.297Z,9.60
2023-05-11T07:32:38.244Z,6.10
2023-05-11T07:35:05.465Z,8.10
2023-05-11T07:37:32.364Z,7.00
2023-05-11T07:39:59.182Z,7.60
2023-05-11T07:42:26.433Z,6.00
2023-05-11T07:44:53.350Z,7.10
2023-05-11T07:47:20.424Z,6.90
2023-05-11T07:49:48.053Z,9.30
2023-05-11T07:52:15.001Z,5.40
2023-05-11T07:54:44.270Z,5.90
2023-05-11T07:57:13.234Z,8.70
2023-05-11T07:59:45.420Z,4.70
2023-05-11T08:02:13.413Z,5.80
2023-05-11T08:04:40.821Z,6.90
2023-05-11T08:07:08.385Z,5.60
2023-05-11T08:09:35.272Z,5.00
2023-05-11T08:12:03.164Z,7.40
2023-05-11T08:14:30.698Z,4.80
2023-05-11T08:16:57.526Z,5.10
2023-05-11T08:19:24.412Z,3.50
2023-05-11T08:21:51.384Z,3.00
2023-05-11T08:24:19.408Z,4.30
2023-05-11T08:26:46.687Z,6.70
2023-05-11T08:29:13.644Z,8.50
2023-05-11T08:31:40.582Z,4.30
2023-05-11T08:34:18.603Z,5.70
2023-05-11T08:36:47.177Z,5.60
2023-05-11T08:39:14.742Z,1.60
2023-05-11T08:41:42.916Z,9.30
2023-05-11T08:44:09.863Z,4.60
2023-05-11T08:46:36.782Z,6.10
2023-05-11T08:49:03.895Z,5.50
2023-05-11T08:51:32.220Z,4.80
2023-05-11T08:53:59.531Z,7.70
2023-05-11T08:56:27.178Z,4.40
2023-05-11T08:58:56.065Z,4.40
2023-05-11T09:01:23.373Z,10.40
2023-05-11T09:03:50.909Z,7.20
2023-05-11T09:06:17.770Z,4.80
2023-05-11T09:08:45.283Z,3.80
2023-05-11T09:11:13.805Z,3.30
2023-05-11T09:13:40.769Z,4.70
2023-05-11T09:16:19.580Z,5.50
2023-05-11T09:18:51.318Z,3.50
2023-05-11T09:21:21.637Z,4.40
2023-05-11T09:23:49.143Z,4.40
2023-05-11T09:26:16.716Z,5.10
2023-05-11T09:29:02.518Z,12.20
2023-05-11T09:31:46.570Z,5.80
2023-05-11T09:34:22.921Z,7.80
2023-05-11T09:36:54.231Z,7.40
2023-05-11T09:39:39.878Z,7.80
2023-05-11T09:42:18.109Z,6.80
2023-05-11T09:44:46.375Z,9.40
2023-05-11T09:47:19.477Z,9.90
2023-05-11T09:49:47.037Z,6.30
2023-05-11T09:52:16.501Z,6.00
2023-05-11T09:54:44.925Z,5.60
2023-05-11T09:57:38.218Z,8.20
2023-05-11T10:00:08.603Z,4.60
2023-05-11T10:02:39.787Z,6.30
2023-05-11T10:05:12.971Z,5.00
2023-05-11T10:07:40.065Z,5.20
2023-05-11T10:10:08.119Z,9.40
2023-05-11T10:12:37.725Z,9.90
2023-05-11T10:15:08.743Z,6.70
2023-05-11T10:17:36.334Z,4.80
2023-05-11T10:20:04.610Z,8.30
2023-05-11T10:22:32.222Z,5.40
2023-05-11T10:24:59.357Z,4.30
2023-05-11T10:27:26.776Z,6.10
2023-05-11T10:29:53.848Z,5.90
2023-05-11T10:32:21.927Z,5.90
2023-05-11T10:34:51.980Z,4.80
2023-05-11T10:37:20.491Z,4.70
2023-05-11T10:39:50.276Z,5.50
2023-05-11T10:42:47.044Z,7.20
2023-05-11T10:45:48.127Z,8.60
2023-05-11T10:48:42.053Z,7.90
2023-05-11T10:51:46.612Z,5.50
2023-05-11T10:54:28.998Z,7.30
2023-05-11T10:57:33.785Z,8.20
2023-05-11T11:00:31.410Z,6.00
2023-05-11T11:02:58.514Z,7.80
2023-05-11T11:05:35.375Z,4.80
2023-05-11T11:08:06.645Z,4.10
2023-05-11T11:10:34.583Z,5.30
2023-05-11T11:13:06.107Z,6.80
2023-05-11T11:15:55.146Z,6.00
2023-05-11T11:18:28.218Z,5.30
2023-05-11T11:20:56.084Z,5.20
2023-05-11T11:23:41.957Z,6.30
2023-05-11T11:26:10.139Z,9.10
2023-05-11T11:29:00.158Z,5.20
2023-05-11T11:31:33.660Z,7.30
2023-05-11T11:34:28.419Z,3.00
2023-05-11T11:36:55.340Z,5.60
2023-05-11T11:39:24.763Z,12.10
2023-05-11T11:42:04.148Z,9.60
2023-05-11T11:44:31.072Z,8.10
2023-05-11T11:47:21.543Z,8.90
2023-05-11T11:49:49.316Z,8.30
2023-05-11T11:52:28.364Z,6.80
2023-05-11T11:55:00.750Z,7.70
2023-05-11T11:57:33.838Z,5.10
2023-05-11T12:00:06.181Z,5.60
2023-05-11T12:02:45.292Z,5.40
2023-05-11T12:05:13.240Z,4.90
2023-05-11T12:07:41.613Z,7.20
2023-05-11T12:10:10.753Z,7.90
2023-05-11T12:12:38.117Z,5.40
2023-05-11T12:15:06.775Z,6.00
2023-05-11T12:17:37.820Z,5.80
2023-05-11T12:20:14.511Z,5.50
2023-05-11T12:22:41.636Z,5.70
2023-05-11T12:25:10.771Z,8.50
2023-05-11T12:27:57.579Z,4.50
2023-05-11T12:35:26.967Z,8.10
2023-05-11T12:37:53.994Z,2.50
2023-05-11T12:40:20.938Z,5.30
2023-05-11T12:42:55.310Z,5.20
2023-05-11T12:45:24.043Z,6.30
2023-05-11T12:47:55.040Z,8.50
2023-05-11T12:50:22.074Z,6.60
2023-05-11T12:52:49.691Z,4.70
2023-05-11T12:55:27.308Z,7.30
2023-05-11T12:57:54.183Z,5.10
2023-05-11T13:00:21.952Z,7.80
2023-05-11T13:02:52.787Z,9.10
2023-05-11T13:05:24.002Z,5.20
2023-05-11T13:08:04.097Z,8.70
2023-05-11T13:10:31.073Z,3.30
2023-05-11T13:12:59.742Z,4.80
2023-05-11T13:15:27.950Z,9.30
2023-05-11T13:17:56.444Z,9.10
2023-05-11T13:20:30.941Z,7.80
2023-05-11T13:23:05.029Z,6.00
2023-05-11T13:25:32.386Z,7.10
2023-05-11T13:28:00.869Z,7.20
2023-05-11T13:30:27.786Z,5.10
2023-05-11T13:32:54.972Z,6.90
2023-05-11T13:35:21.850Z,5.10
2023-05-11T13:37:48.699Z,6.60
2023-05-11T13:40:15.545Z,6.50
2023-05-11T13:42:42.804Z,4.50
2023-05-11T13:45:11.508Z,6.50
2023-05-11T13:47:45.530Z,4.30
2023-05-11T13:50:13.158Z,7.70
2023-05-11T13:52:41.121Z,4.40
2023-05-11T13:55:08.147Z,4.50
2023-05-11T13:57:35.582Z,6.10
2023-05-11T14:00:02.895Z,5.90
2023-05-11T14:02:38.769Z,4.60
2023-05-11T14:05:06.395Z,5.50
2023-05-11T14:07:43.234Z,5.00
2023-05-11T14:10:13.883Z,10.30
2023-05-11T14:12:41.238Z,7.40
2023-05-11T14:15:08.592Z,3.70
2023-05-11T14:17:36.269Z,5.20
2023-05-11T14:20:03.790Z,4.20
2023-05-11T14:22:31.398Z,4.20
2023-05-11T14:24:58.271Z,5.90
2023-05-11T14:27:25.193Z,10.10
2023-05-11T14:29:52.388Z,6.50
2023-05-11T14:32:19.700Z,3.40
2023-05-11T14:34:47.208Z,3.60
2023-05-11T14:37:14.021Z,12.70
2023-05-11T14:39:40.966Z,5.70
2023-05-11T14:42:08.208Z,3.40
2023-05-11T14:44:35.149Z,5.90
2023-05-11T14:47:07.107Z,5.20
2023-05-11T14:49:34.253Z,11.90
2023-05-11T14:52:01.416Z,7.10
2023-05-11T14:54:28.602Z,4.30
2023-05-11T14:56:56.693Z,6.90
2023-05-11T14:59:25.269Z,7.50
2023-05-11T15:01:57.338Z,2.70
2023-05-11T15:04:25.098Z,6.20
2023-05-11T15:06:52.069Z,3.00
2023-05-11T15:09:25.671Z,4.10
2023-05-11T15:11:52.470Z,6.80
2023-05-11T15:14:19.440Z,5.80
2023-05-11T15:16:46.580Z,4.60
2023-05-11T15:19:13.694Z,4.40
2023-05-11T15:21:40.618Z,12.50
2023-05-11T15:24:10.700Z,3.00
2023-05-11T15:26:37.982Z,5.70
2023-05-11T15:29:04.840Z,5.60
2023-05-11T15:31:31.975Z,4.90
2023-05-11T15:33:58.839Z,9.80
2023-05-11T15:36:29.421Z,5.80
2023-05-11T15:39:02.936Z,5.30
2023-05-11T15:41:29.949Z,6.00
2023-05-11T15:43:56.918Z,10.80
2023-05-11T15:46:23.947Z,5.30
2023-05-11T15:48:51.249Z,3.90
2023-05-11T15:51:18.691Z,7.00
2023-05-11T15:53:45.619Z,6.70
2023-05-11T15:56:12.465Z,3.30
2023-05-11T15:58:39.423Z,4.80
2023-05-11T16:01:06.391Z,6.40
2023-05-11T16:03:34.151Z,6.20
2023-05-11T16:06:01.281Z,8.10
2023-05-11T16:08:28.346Z,5.70
2023-05-11T16:10:55.195Z,4.00
2023-05-11T16:13:22.160Z,5.40
2023-05-11T16:15:49.036Z,4.80
2023-05-11T16:18:16.015Z,9.80
2023-05-11T16:20:43.428Z,6.60
2023-05-11T16:23:10.329Z,6.30
2023-05-11T16:25:37.251Z,6.10
2023-05-11T16:28:04.654Z,5.00
2023-05-11T16:30:31.886Z,9.00
2023-05-11T16:32:58.931Z,8.00
2023-05-11T16:35:26.270Z,5.00
2023-05-11T16:37:54.484Z,3.90
2023-05-11T16:40:21.977Z,5.10
2023-05-11T16:42:49.189Z,6.90
2023-05-11T16:45:16.093Z,9.30
2023-05-11T16:47:44.738Z,6.60
2023-05-11T16:50:15.340Z,8.20
2023-05-11T16:52:48.081Z,10.70
2023-05-11T16:55:15.453Z,3.80
2023-05-11T16:57:43.298Z,6.80
2023-05-11T17:00:10.967Z,10.40
2023-05-11T17:02:38.025Z,7.90
2023-05-11T17:05:06.576Z,9.80
2023-05-11T17:07:33.763Z,8.40
2023-05-11T17:10:00.723Z,6.50
2023-05-11T17:12:28.224Z,9.20
2023-05-11T17:14:55.245Z,9.50
2023-05-11T17:17:22.515Z,10.20
2023-05-11T17:19:49.381Z,10.40
2023-05-11T17:22:16.254Z,5.90
2023-05-11T17:24:43.292Z,9.20
2023-05-11T17:27:10.142Z,9.20
2023-05-11T17:29:43.869Z,10.50
2023-05-11T17:32:16.869Z,11.40
2023-05-11T17:34:43.976Z,8.60
2023-05-11T17:37:23.753Z,11.50
2023-05-11T17:39:57.837Z,9.80
2023-05-11T17:42:25.155Z,13.50
2023-05-11T17:44:52.133Z,10.90
2023-05-11T17:47:19.175Z,9.80
2023-05-11T17:49:46.004Z,11.50
2023-05-11T17:52:13.143Z,12.70
2023-05-11T17:54:39.985Z,18.00
2023-05-11T17:57:07.021Z,12.50
2023-05-11T17:59:34.834Z,7.40
2023-05-11T18:02:01.729Z,7.70
2023-05-11T18:04:29.388Z,14.50
2023-05-11T18:06:56.692Z,11.70
2023-05-11T18:09:23.736Z,18.60
2023-05-11T18:11:50.710Z,11.70
2023-05-11T18:14:17.568Z,17.20
2023-05-11T18:16:44.434Z,15.60
2023-05-11T18:19:11.328Z,12.80
2023-05-11T18:21:39.730Z,14.00
2023-05-11T18:24:08.860Z,9.40
2023-05-11T18:26:36.149Z,19.50
2023-05-11T18:29:03.212Z,13.60
2023-05-11T18:31:31.082Z,13.50
2023-05-11T18:33:58.092Z,15.80
2023-05-11T18:36:25.767Z,10.70
2023-05-11T18:38:53.277Z,11.50
2023-05-11T18:41:21.005Z,12.80
2023-05-11T18:43:48.401Z,16.60
2023-05-11T18:46:15.845Z,14.00
2023-05-11T18:48:44.253Z,12.00
2023-05-11T18:51:11.530Z,7.60
2023-05-11T18:53:38.515Z,11.80
2023-05-11T18:56:07.018Z,12.60
2023-05-11T18:58:34.169Z,9.40
2023-05-11T19:01:01.000Z,9.10
2023-05-11T19:03:30.476Z,9.30
2023-05-11T19:05:58.823Z,6.10
2023-05-11T19:08:25.775Z,7.80
2023-05-11T19:10:52.695Z,8.00
2023-05-11T19:13:20.042Z,8.00
2023-05-11T19:15:46.786Z,11.70
2023-05-11T19:18:14.200Z,14.10
2023-05-11T19:20:41.107Z,13.70
2023-05-11T19:23:08.122Z,12.00
2023-05-11T19:25:40.413Z,11.50
2023-05-11T19:28:07.209Z,10.00
2023-05-11T19:30:34.134Z,8.70
2023-05-11T19:33:01.670Z,7.60
2023-05-11T19:35:33.771Z,11.40
2023-05-11T19:38:00.799Z,11.00
2023-05-11T19:40:45.520Z,7.90
2023-05-11T19:43:13.583Z,9.90
2023-05-11T19:45:47.859Z,12.40
2023-05-11T19:48:15.961Z,11.40
2023-05-11T19:50:43.657Z,11.70
2023-05-11T19:53:10.646Z,12.70
2023-05-11T19:55:39.073Z,14.90
2023-05-11T19:58:06.326Z,12.70
2023-05-11T20:00:33.246Z,14.60
2023-05-11T20:03:00.529Z,16.30
2023-05-11T20:05:27.465Z,12.70
2023-05-11T20:07:59.898Z,14.80
2023-05-11T20:10:27.012Z,12.00
2023-05-11T20:12:59.065Z,16.90
2023-05-11T20:15:25.966Z,14.10
2023-05-11T20:17:58.170Z,12.70
2023-05-11T20:20:25.249Z,15.90
2023-05-11T20:22:52.189Z,15.60
2023-05-11T20:25:19.204Z,14.10
2023-05-11T20:27:46.292Z,15.70
2023-05-11T20:30:13.644Z,14.10
2023-05-11T20:34:06.648Z,12.20
2023-05-11T20:35:27.849Z,15.00
2023-05-11T20:37:55.050Z,11.50
2023-05-11T20:40:22.014Z,22.70
2023-05-11T20:42:49.024Z,10.90
2023-05-11T20:45:16.009Z,14.70
2023-05-11T20:47:42.915Z,19.10
2023-05-11T20:50:10.517Z,13.20
2023-05-11T20:52:37.399Z,16.10
2023-05-11T20:55:05.180Z,19.90
2023-05-11T20:57:32.297Z,16.70
2023-05-11T21:02:29.559Z,16.60
2023-05-11T21:05:01.710Z,16.40
2023-05-11T21:07:29.220Z,12.20
2023-05-11T21:10:01.028Z,12.00
2023-05-11T21:12:28.275Z,15.30
2023-05-11T21:14:57.009Z,12.90
2023-05-11T21:17:24.338Z,12.00
2023-05-11T21:19:56.291Z,10.80
2023-05-11T21:22:23.096Z,11.80
2023-05-11T21:24:55.020Z,12.10
2023-05-11T21:27:21.857Z,10.70
2023-05-11T21:29:50.237Z,13.60
2023-05-11T21:32:17.054Z,10.40
2023-05-11T21:34:44.000Z,14.80
2023-05-11T21:37:14.011Z,10.10
2023-05-11T21:39:41.049Z,13.80
2023-05-11T21:42:07.821Z,14.50
2023-05-11T21:44:35.501Z,12.70
2023-05-11T21:47:02.396Z,11.90
2023-05-11T21:49:29.349Z,11.60
2023-05-11T21:52:01.116Z,12.80
2023-05-11T21:54:27.927Z,8.80
2023-05-11T21:56:54.885Z,14.90
2023-05-11T21:59:25.882Z,12.90
2023-05-11T22:01:54.146Z,11.20
2023-05-11T22:04:21.145Z,10.00
2023-05-11T22:06:48.080Z,12.60
2023-05-11T22:09:15.319Z,10.80
2023-05-11T22:11:42.461Z,10.20
2023-05-11T22:14:09.763Z,11.60
2023-05-11T22:16:41.807Z,10.80
2023-05-11T22:19:08.796Z,16.20
2023-05-11T22:21:35.878Z,13.30
2023-05-11T22:24:03.627Z,13.40
2023-05-11T22:26:30.574Z,12.80
2023-05-11T22:28:57.409Z,19.10
2023-05-11T22:31:26.197Z,15.60
2023-05-11T22:33:53.030Z,10.00
2023-05-11T22:36:19.874Z,12.70
2023-05-11T22:38:46.659Z,9.10
2023-05-11T22:41:13.528Z,12.70
2023-05-11T22:43:40.331Z,12.80
2023-05-11T22:46:07.551Z,11.30
2023-05-11T22:48:34.616Z,15.40
2023-05-11T22:51:03.234Z,9.80
2023-05-11T22:53:30.248Z,13.00
2023-05-11T22:55:57.274Z,9.80
2023-05-11T22:58:24.613Z,10.10
2023-05-11T23:00:55.210Z,12.30
2023-05-11T23:03:22.180Z,9.80
2023-05-11T23:05:49.058Z,14.40
2023-05-11T23:08:15.926Z,12.00
2023-05-11T23:10:42.787Z,11.90
2023-05-11T23:13:10.284Z,12.50
2023-05-11T23:15:37.125Z,11.10
2023-05-11T23:18:04.180Z,14.00
2023-05-11T23:20:31.155Z,14.40
2023-05-11T23:23:03.135Z,11.20
2023-05-11T23:25:30.427Z,10.00
2023-05-11T23:27:57.264Z,11.30
2023-05-11T23:30:24.158Z,10.40
2023-05-11T23:32:51.000Z,15.20
2023-05-11T23:35:17.863Z,12.20
2023-05-11T23:37:44.760Z,15.80
2023-05-11T23:40:11.694Z,10.50
2023-05-11T23:42:38.642Z,15.20
2023-05-11T23:45:07.473Z,10.10
2023-05-11T23:47:34.523Z,11.00
2023-05-11T23:50:01.568Z,10.60
2023-05-11T23:52:29.159Z,15.50
2023-05-11T23:54:56.142Z,14.60
2023-05-11T23:57:28.055Z,11.60
2023-05-11T23:59:55.492Z,12.40
